Time;durP1;ratioP1;P1;durP2;ratioP2;P2;SDS_P1;SDS_P2;PMS_P1;PMS_P2;Temp;Humidity;BMP_temperature;BMP_pressure;BME280_temperature;BME280_humidity;BME280_pressure;Samples;Min_cycle;Max_cycle;Signal;HPM_P1;HPM_P2
2022/07/07 00:00:42;;;;;;;2.75;2.05;;;22.90;59.00;;;;;;5008068;28;20546;-64
2022/07/07 00:03:08;;;;;;;2.58;1.88;;;22.90;58.90;;;;;;5006678;28;20030;-63
2022/07/07 00:05:38;;;;;;;2.83;1.83;;;23.00;58.90;;;;;;5008939;28;20048;-63
2022/07/07 00:08:04;;;;;;;2.38;1.77;;;22.90;58.90;;;;;;5006571;28;20063;-62
2022/07/07 00:10:29;;;;;;;1.90;1.77;;;22.90;58.90;;;;;;5007382;28;20046;-62
2022/07/07 00:12:55;;;;;;;2.72;1.95;;;22.90;58.90;;;;;;5010334;28;20048;-63
2022/07/07 00:15:21;;;;;;;2.35;1.85;;;22.90;58.90;;;;;;5009740;28;20052;-62
2022/07/07 00:17:46;;;;;;;2.92;1.90;;;22.90;59.00;;;;;;5006655;28;20034;-62
2022/07/07 00:20:12;;;;;;;2.53;2.33;;;22.90;59.00;;;;;;5008461;28;20124;-62
2022/07/07 00:22:38;;;;;;;2.40;2.20;;;22.90;59.00;;;;;;5008887;28;20124;-62
2022/07/07 00:25:05;;;;;;;2.95;2.22;;;22.90;59.10;;;;;;5006457;28;20065;-62
2022/07/07 00:27:31;;;;;;;2.65;2.17;;;22.90;59.10;;;;;;5006627;28;20050;-63
2022/07/07 00:29:57;;;;;;;2.20;2.00;;;22.90;59.10;;;;;;5007195;28;20053;-63
2022/07/07 00:32:23;;;;;;;2.65;1.98;;;22.90;59.20;;;;;;5008867;28;20092;-62
2022/07/07 00:34:49;;;;;;;2.60;1.90;;;22.90;59.20;;;;;;5010486;28;20030;-62
2022/07/07 00:37:14;;;;;;;2.08;1.80;;;22.90;59.20;;;;;;5010373;28;20482;-61
2022/07/07 00:39:40;;;;;;;2.47;1.75;;;22.90;59.10;;;;;;5005792;28;20033;-62
2022/07/07 00:42:06;;;;;;;2.70;1.95;;;22.90;59.20;;;;;;5004703;28;20036;-62
2022/07/07 00:44:32;;;;;;;2.97;2.10;;;22.90;59.20;;;;;;5009741;28;20037;-63
2022/07/07 00:46:58;;;;;;;2.95;2.08;;;22.90;59.20;;;;;;5007403;28;20056;-62
2022/07/07 00:49:24;;;;;;;2.20;2.00;;;22.90;59.30;;;;;;5008666;28;20132;-62
2022/07/07 00:51:50;;;;;;;2.20;1.77;;;22.90;59.20;;;;;;5007787;28;20565;-62
2022/07/07 00:54:16;;;;;;;2.15;1.90;;;22.90;59.20;;;;;;5007717;28;20057;-62
2022/07/07 00:56:42;;;;;;;2.70;1.80;;;22.90;59.20;;;;;;5005976;28;20077;-64
2022/07/07 00:59:08;;;;;;;2.28;1.98;;;22.90;59.20;;;;;;5005778;28;20121;-62
2022/07/07 01:01:39;;;;;;;2.80;1.88;;;22.90;59.30;;;;;;5005454;28;20037;-63
2022/07/07 01:04:12;;;;;;;2.00;1.88;;;22.90;59.20;;;;;;5006988;28;20030;-63
2022/07/07 01:06:39;;;;;;;2.00;1.80;;;22.90;59.20;;;;;;5007371;28;20077;-62
2022/07/07 01:09:06;;;;;;;2.25;1.98;;;22.90;59.30;;;;;;5009723;28;20155;-62
2022/07/07 01:11:53;;;;;;;2.03;1.80;;;22.90;59.30;;;;;;5006698;28;20172;-61
2022/07/07 01:14:20;;;;;;;2.15;1.77;;;22.90;59.30;;;;;;5007455;28;20060;-62
2022/07/07 01:16:47;;;;;;;2.22;2.10;;;22.90;59.30;;;;;;5006719;28;20153;-63
2022/07/07 01:19:12;;;;;;;2.85;2.22;;;22.90;59.40;;;;;;5010029;28;20068;-62
2022/07/07 01:22:00;;;;;;;2.90;1.90;;;22.80;59.30;;;;;;5011217;28;20469;-64
2022/07/07 01:24:28;;;;;;;2.20;1.83;;;22.90;59.40;;;;;;5009200;28;20048;-62
2022/07/07 01:27:14;;;;;;;2.28;2.08;;;22.90;59.50;;;;;;5007689;28;20609;-62
2022/07/07 01:29:55;;;;;;;2.42;1.70;;;22.90;59.50;;;;;;4989122;28;20061;-61
2022/07/07 01:32:22;;;;;;;1.67;1.58;;;22.80;59.40;;;;;;5009425;28;20125;-64
2022/07/07 01:34:49;;;;;;;3.00;1.98;;;22.80;59.50;;;;;;5010658;28;20045;-62
2022/07/07 01:37:15;;;;;;;2.00;1.70;;;22.80;59.50;;;;;;5012678;28;20060;-62
2022/07/07 01:39:42;;;;;;;2.15;1.73;;;22.80;59.50;;;;;;5009246;28;20119;-64
2022/07/07 01:42:09;;;;;;;2.45;1.70;;;22.80;59.50;;;;;;5012300;28;20033;-64
2022/07/07 01:44:37;;;;;;;1.75;1.65;;;22.90;59.50;;;;;;5010672;28;20081;-61
2022/07/07 01:47:04;;;;;;;2.22;1.75;;;22.80;59.50;;;;;;5014990;28;20658;-62
2022/07/07 01:49:31;;;;;;;1.50;1.40;;;22.90;59.60;;;;;;5008228;28;20076;-62
2022/07/07 01:51:57;;;;;;;1.52;1.40;;;22.90;59.60;;;;;;5010476;28;20064;-63
2022/07/07 01:54:23;;;;;;;2.50;1.85;;;22.80;59.60;;;;;;5007958;28;20039;-62
2022/07/07 01:56:49;;;;;;;1.65;1.40;;;22.80;59.70;;;;;;5006887;28;20123;-62
2022/07/07 01:59:14;;;;;;;1.73;1.40;;;22.80;59.70;;;;;;5010746;28;20091;-62
2022/07/07 02:01:40;;;;;;;1.58;1.33;;;22.80;59.70;;;;;;4991663;28;20049;-64
2022/07/07 02:04:06;;;;;;;1.63;1.50;;;22.80;59.70;;;;;;4997581;28;20045;-64
2022/07/07 02:06:32;;;;;;;1.65;1.48;;;22.80;59.70;;;;;;5011095;28;20478;-63
2022/07/07 02:08:59;;;;;;;1.58;1.15;;;22.80;59.70;;;;;;5009679;28;20056;-62
2022/07/07 02:11:26;;;;;;;1.38;1.17;;;22.80;59.70;;;;;;5023964;28;20445;-64
2022/07/07 02:13:52;;;;;;;2.13;1.25;;;22.80;59.80;;;;;;5008472;28;20429;-62
2022/07/07 02:16:20;;;;;;;1.92;1.25;;;22.80;59.80;;;;;;5011370;28;20582;-62
2022/07/07 02:18:48;;;;;;;1.05;1.05;;;22.80;59.80;;;;;;5008711;28;20429;-61
2022/07/07 02:21:14;;;;;;;1.40;1.20;;;22.80;59.90;;;;;;5011177;28;20080;-62
2022/07/07 02:23:43;;;;;;;1.65;1.00;;;22.80;59.90;;;;;;5011342;28;20030;-63
2022/07/07 02:26:08;;;;;;;1.25;0.90;;;22.80;60.50;;;;;;5012154;28;20042;-63
2022/07/07 02:28:34;;;;;;;1.58;1.25;;;22.80;59.80;;;;;;5009372;28;20505;-62
2022/07/07 02:31:00;;;;;;;1.00;0.95;;;22.80;59.90;;;;;;5008578;28;20042;-62
2022/07/07 02:33:26;;;;;;;2.28;1.20;;;22.80;59.90;;;;;;5011911;28;20262;-62
2022/07/07 02:35:53;;;;;;;1.15;1.05;;;22.80;60.60;;;;;;5011048;28;20030;-62
2022/07/07 02:38:19;;;;;;;1.60;1.05;;;22.80;60.00;;;;;;5011276;28;20151;-63
2022/07/07 02:40:45;;;;;;;1.73;1.20;;;22.80;59.90;;;;;;5013094;28;20045;-61
2022/07/07 02:43:14;;;;;;;1.23;0.93;;;22.80;60.00;;;;;;5008468;28;20034;-62
2022/07/07 02:45:40;;;;;;;1.15;0.85;;;22.80;60.00;;;;;;5006758;28;20112;-62
2022/07/07 02:48:11;;;;;;;1.52;1.10;;;22.80;60.10;;;;;;5010362;28;20046;-63
2022/07/07 02:50:37;;;;;;;1.35;1.00;;;22.80;60.10;;;;;;5010855;28;20552;-62
2022/07/07 02:53:03;;;;;;;0.85;0.85;;;22.80;60.00;;;;;;5011469;28;20584;-64
2022/07/07 02:55:30;;;;;;;1.60;1.00;;;22.80;60.10;;;;;;5008768;28;20585;-61
2022/07/07 02:57:56;;;;;;;1.20;0.90;;;22.80;60.00;;;;;;5008824;28;20033;-62
2022/07/07 03:00:23;;;;;;;1.60;1.10;;;22.80;60.00;;;;;;4989661;28;21580;-62
2022/07/07 03:02:48;;;;;;;1.23;1.00;;;22.80;60.00;;;;;;5010897;28;20419;-62
2022/07/07 03:05:14;;;;;;;1.23;1.00;;;22.80;60.00;;;;;;5009182;28;20124;-61
2022/07/07 03:07:40;;;;;;;2.58;1.05;;;22.80;60.00;;;;;;5010362;28;20030;-62
2022/07/07 03:10:06;;;;;;;1.27;0.98;;;22.80;60.00;;;;;;5008666;28;20046;-62
2022/07/07 03:12:33;;;;;;;0.82;0.82;;;22.80;60.00;;;;;;5007647;28;20456;-62
2022/07/07 03:14:58;;;;;;;1.33;1.10;;;22.80;60.00;;;;;;5011230;28;20092;-63
2022/07/07 03:17:24;;;;;;;0.80;0.80;;;22.80;60.00;;;;;;5008842;28;20497;-62
2022/07/07 03:19:50;;;;;;;2.90;1.00;;;22.80;60.00;;;;;;5010007;28;20039;-62
2022/07/07 03:22:15;;;;;;;1.05;0.80;;;22.80;60.00;;;;;;5010890;28;20036;-62
2022/07/07 03:24:41;;;;;;;1.90;1.00;;;22.80;60.00;;;;;;5010441;28;20049;-65
2022/07/07 03:27:07;;;;;;;3.05;0.98;;;22.70;60.00;;;;;;5006354;28;20034;-61
2022/07/07 03:29:33;;;;;;;0.90;0.90;;;22.80;60.00;;;;;;5010426;28;20057;-62
2022/07/07 03:31:59;;;;;;;2.20;1.10;;;22.80;60.00;;;;;;5010443;28;20397;-62
2022/07/07 03:34:25;;;;;;;2.35;1.15;;;22.80;60.10;;;;;;5010288;28;20045;-62
2022/07/07 03:36:51;;;;;;;1.83;1.00;;;22.80;60.10;;;;;;4993597;28;20045;-62
2022/07/07 03:39:16;;;;;;;1.35;0.77;;;22.70;60.00;;;;;;5011764;28;20568;-63
2022/07/07 03:41:42;;;;;;;1.73;0.80;;;22.80;60.10;;;;;;5010205;28;20037;-62
2022/07/07 03:44:07;;;;;;;1.48;1.02;;;22.70;60.10;;;;;;5006841;28;21906;-63
2022/07/07 03:46:33;;;;;;;1.95;1.00;;;22.70;60.10;;;;;;5003657;28;20064;-62
2022/07/07 03:48:59;;;;;;;1.77;0.90;;;22.70;60.00;;;;;;5029968;28;20041;-63
2022/07/07 03:51:25;;;;;;;2.92;1.10;;;22.70;60.10;;;;;;5029331;28;20039;-62
2022/07/07 03:53:51;;;;;;;1.42;1.10;;;22.70;60.10;;;;;;5028458;28;20033;-62
2022/07/07 03:56:16;;;;;;;1.98;0.90;;;22.80;60.10;;;;;;5025064;28;20543;-62
2022/07/07 03:58:42;;;;;;;2.10;1.00;;;22.70;60.00;;;;;;5028406;28;20145;-62
2022/07/07 04:01:08;;;;;;;1.95;0.88;;;22.70;60.00;;;;;;5029473;28;20041;-62
2022/07/07 04:03:33;;;;;;;1.73;0.90;;;22.70;60.00;;;;;;5028713;28;20109;-62
2022/07/07 04:05:59;;;;;;;2.42;0.90;;;22.70;60.00;;;;;;5029157;28;20534;-62
2022/07/07 04:08:25;;;;;;;2.63;0.80;;;22.70;60.10;;;;;;5028833;28;20119;-62
2022/07/07 04:10:50;;;;;;;1.35;0.98;;;22.70;60.10;;;;;;5029330;28;20037;-61
2022/07/07 04:13:16;;;;;;;1.60;0.98;;;22.70;60.00;;;;;;5030000;28;20681;-61
2022/07/07 04:15:42;;;;;;;2.55;0.90;;;22.70;60.10;;;;;;5026354;28;20807;-63
2022/07/07 04:18:08;;;;;;;1.17;0.90;;;22.70;60.10;;;;;;5029988;28;20033;-62
2022/07/07 04:20:33;;;;;;;1.23;0.80;;;22.70;60.10;;;;;;5029928;28;20421;-62
2022/07/07 04:22:59;;;;;;;1.77;0.80;;;22.70;60.10;;;;;;5030974;28;20067;-63
2022/07/07 04:25:25;;;;;;;1.60;0.60;;;22.70;60.10;;;;;;5028596;28;20030;-62
2022/07/07 04:27:51;;;;;;;1.63;0.70;;;22.70;60.10;;;;;;4994881;28;20420;-62
2022/07/07 04:30:17;;;;;;;1.42;0.88;;;22.70;60.10;;;;;;5029845;28;20044;-62
2022/07/07 04:32:42;;;;;;;2.30;0.77;;;22.70;60.10;;;;;;5027501;28;20037;-63
2022/07/07 04:35:08;;;;;;;2.83;0.90;;;22.70;60.20;;;;;;5027157;28;20036;-63
2022/07/07 04:37:34;;;;;;;2.75;0.90;;;22.70;60.30;;;;;;5028454;28;20053;-62
2022/07/07 04:40:00;;;;;;;1.60;0.80;;;22.70;60.20;;;;;;5012323;28;20359;-62
2022/07/07 04:42:26;;;;;;;2.20;0.80;;;22.70;60.20;;;;;;5027907;28;20045;-62
2022/07/07 04:44:51;;;;;;;2.60;1.10;;;22.70;60.20;;;;;;5027908;28;20481;-63
2022/07/07 04:47:17;;;;;;;1.80;0.88;;;22.70;60.20;;;;;;5021908;28;20061;-61
2022/07/07 04:49:43;;;;;;;3.25;0.77;;;22.70;60.90;;;;;;5006359;28;20576;-63
2022/07/07 04:52:09;;;;;;;4.68;1.02;;;22.60;60.10;;;;;;5024568;28;20960;-64
2022/07/07 04:54:35;;;;;;;1.85;0.85;;;22.60;60.10;;;;;;5026879;28;20494;-63
2022/07/07 04:57:00;;;;;;;2.75;1.15;;;22.60;60.10;;;;;;5027865;28;20398;-62
2022/07/07 04:59:26;;;;;;;2.28;0.80;;;22.70;60.10;;;;;;5027852;28;20240;-62
2022/07/07 05:01:52;;;;;;;2.45;0.82;;;22.60;60.00;;;;;;5029124;28;20064;-62
2022/07/07 05:04:17;;;;;;;1.85;0.75;;;22.70;60.10;;;;;;5031879;28;20037;-62
2022/07/07 05:06:43;;;;;;;3.17;0.90;;;22.60;60.00;;;;;;5028364;28;20037;-64
2022/07/07 05:09:12;;;;;;;3.15;1.00;;;22.60;60.00;;;;;;5031673;28;20124;-62
2022/07/07 05:11:37;;;;;;;2.55;0.73;;;22.60;60.00;;;;;;5030462;28;20044;-61
2022/07/07 05:14:03;;;;;;;1.05;0.77;;;22.60;60.00;;;;;;5028876;28;20041;-64
2022/07/07 05:16:30;;;;;;;2.85;0.70;;;22.60;60.60;;;;;;5033974;28;20049;-63
2022/07/07 05:18:55;;;;;;;1.55;0.75;;;22.70;60.00;;;;;;5033439;28;20029;-62
2022/07/07 05:21:21;;;;;;;3.22;0.90;;;22.70;59.90;;;;;;5028255;28;20090;-64
2022/07/07 05:23:47;;;;;;;2.90;1.00;;;22.70;59.90;;;;;;5030126;28;20041;-64
2022/07/07 05:26:13;;;;;;;1.48;0.70;;;22.70;59.80;;;;;;5031714;28;20118;-64
2022/07/07 05:28:42;;;;;;;3.72;0.70;;;22.70;59.70;;;;;;5030459;28;20457;-63
2022/07/07 05:31:13;;;;;;;3.30;1.00;;;22.70;59.80;;;;;;5024094;28;20056;-63
2022/07/07 05:33:39;;;;;;;2.83;0.93;;;22.70;59.80;;;;;;5026326;28;20041;-62
2022/07/07 05:36:06;;;;;;;6.18;1.40;;;22.80;60.10;;;;;;5032252;28;20052;-63
2022/07/07 05:38:33;;;;;;;3.83;0.80;;;22.80;60.20;;;;;;5032012;28;20493;-63
2022/07/07 05:40:59;;;;;;;2.22;0.68;;;22.80;60.50;;;;;;5029624;28;20032;-63
2022/07/07 05:43:25;;;;;;;3.30;1.00;;;22.80;60.20;;;;;;5030495;28;20044;-63
2022/07/07 05:45:50;;;;;;;5.80;0.70;;;22.80;60.10;;;;;;5031924;28;20064;-63
2022/07/07 05:48:17;;;;;;;5.72;0.90;;;22.80;60.50;;;;;;5015847;28;20049;-62
2022/07/07 05:50:43;;;;;;;2.83;0.77;;;22.80;60.40;;;;;;5010363;28;20183;-62
2022/07/07 05:53:09;;;;;;;3.60;0.98;;;22.80;60.60;;;;;;4998064;28;20056;-64
2022/07/07 05:55:34;;;;;;;1.75;0.70;;;22.90;60.60;;;;;;5030805;28;20405;-62
2022/07/07 05:58:00;;;;;;;2.80;0.90;;;22.90;60.50;;;;;;5012702;28;20394;-61
2022/07/07 06:00:27;;;;;;;1.90;0.90;;;22.90;60.40;;;;;;5027860;28;20413;-61
2022/07/07 06:02:53;;;;;;;1.60;0.60;;;22.90;60.10;;;;;;5027336;28;20033;-61
2022/07/07 06:05:19;;;;;;;3.60;0.90;;;22.90;60.10;;;;;;5029450;28;20075;-61
2022/07/07 06:07:45;;;;;;;4.20;1.00;;;22.90;60.70;;;;;;5029854;28;20065;-61
2022/07/07 06:10:11;;;;;;;3.80;0.90;;;22.90;60.90;;;;;;5026984;28;20063;-62
2022/07/07 06:12:46;;;;;;;2.67;0.90;;;22.90;60.80;;;;;;5026281;28;20556;-62
2022/07/07 06:15:12;;;;;;;7.07;1.10;;;22.90;60.80;;;;;;5027723;28;20533;-62
2022/07/07 06:17:38;;;;;;;7.30;1.13;;;22.90;61.00;;;;;;5008184;28;20045;-64
2022/07/07 06:20:04;;;;;;;5.35;1.10;;;22.90;61.10;;;;;;5028041;28;20036;-62
2022/07/07 06:22:30;;;;;;;3.60;0.80;;;22.90;60.90;;;;;;5032370;28;20033;-61
2022/07/07 06:24:55;;;;;;;3.90;1.02;;;22.90;60.80;;;;;;5012949;28;20088;-62
2022/07/07 06:27:21;;;;;;;1.80;0.80;;;22.90;60.50;;;;;;5011955;28;20049;-62
2022/07/07 06:29:47;;;;;;;4.15;1.00;;;22.90;60.50;;;;;;5026731;28;20069;-63
2022/07/07 06:32:15;;;;;;;19.30;1.85;;;22.90;60.60;;;;;;5029532;28;20457;-63
2022/07/07 06:34:41;;;;;;;5.07;1.45;;;22.90;60.80;;;;;;5030210;28;20045;-64
2022/07/07 06:37:07;;;;;;;4.75;1.27;;;23.00;61.80;;;;;;5027982;28;20045;-63
2022/07/07 06:39:33;;;;;;;5.25;1.27;;;23.00;61.20;;;;;;5029413;28;20123;-62
2022/07/07 06:41:59;;;;;;;3.30;1.40;;;23.00;61.30;;;;;;5030900;28;20463;-62
2022/07/07 06:44:30;;;;;;;4.68;1.08;;;23.00;61.20;;;;;;5026839;28;20064;-63
2022/07/07 06:47:00;;;;;;;3.47;1.30;;;23.00;61.20;;;;;;4991380;28;1073065;-62
2022/07/07 06:49:26;;;;;;;7.22;1.10;;;23.00;61.30;;;;;;5010653;28;20045;-62
2022/07/07 06:51:52;;;;;;;5.85;1.00;;;23.00;61.10;;;;;;5009978;28;20041;-61
2022/07/07 06:54:18;;;;;;;2.90;1.00;;;23.00;60.90;;;;;;5026525;28;20041;-62
2022/07/07 06:56:44;;;;;;;4.43;1.23;;;23.00;60.80;;;;;;5030875;28;20501;-62
2022/07/07 06:59:09;;;;;;;4.68;1.50;;;23.00;60.60;;;;;;5026999;28;20048;-62
2022/07/07 07:01:35;;;;;;;1.80;0.80;;;23.00;60.60;;;;;;5006292;28;20038;-63
2022/07/07 07:04:01;;;;;;;1.63;0.80;;;23.00;60.60;;;;;;5006653;28;20064;-62
2022/07/07 07:06:28;;;;;;;4.03;1.08;;;23.00;60.60;;;;;;5009617;28;20393;-63
2022/07/07 07:08:55;;;;;;;4.25;1.48;;;23.00;60.60;;;;;;5027106;28;20084;-62
2022/07/07 07:11:20;;;;;;;2.65;1.05;;;23.00;60.60;;;;;;5028514;28;20045;-63
2022/07/07 07:13:49;;;;;;;5.13;1.17;;;23.00;60.50;;;;;;4997843;28;20041;-63
2022/07/07 07:16:16;;;;;;;3.58;1.10;;;23.00;60.10;;;;;;5025076;28;20044;-65
2022/07/07 07:18:41;;;;;;;4.75;1.13;;;23.00;60.30;;;;;;5004284;28;20044;-64
2022/07/07 07:21:07;;;;;;;3.45;1.27;;;23.00;60.40;;;;;;5024336;28;20037;-63
2022/07/07 07:23:33;;;;;;;2.50;0.80;;;23.00;60.30;;;;;;5022102;28;20304;-64
2022/07/07 07:25:58;;;;;;;2.58;0.93;;;23.00;60.30;;;;;;5006488;28;20111;-64
2022/07/07 07:28:37;;;;;;;4.03;1.15;;;23.00;60.30;;;;;;5007797;28;20045;-65
2022/07/07 07:31:12;;;;;;;4.55;0.95;;;23.00;60.40;;;;;;5006889;28;20493;-64
2022/07/07 07:33:38;;;;;;;5.50;1.27;;;23.00;60.40;;;;;;5028646;28;20534;-62
2022/07/07 07:36:07;;;;;;;3.35;1.20;;;23.00;60.40;;;;;;5010406;28;20037;-63
2022/07/07 07:38:35;;;;;;;4.57;1.00;;;23.00;60.40;;;;;;5008231;28;20037;-64
2022/07/07 07:41:02;;;;;;;5.00;1.00;;;23.00;60.50;;;;;;5028746;28;20140;-61
2022/07/07 07:43:28;;;;;;;5.55;1.30;;;23.00;60.50;;;;;;5028199;28;20059;-65
2022/07/07 07:45:54;;;;;;;2.60;1.02;;;23.00;60.40;;;;;;5008461;28;20053;-65
2022/07/07 07:48:19;;;;;;;2.80;1.00;;;23.00;60.20;;;;;;5023885;28;20520;-64
2022/07/07 07:50:45;;;;;;;2.60;1.20;;;23.00;59.90;;;;;;5028169;28;20041;-61
2022/07/07 07:53:11;;;;;;;3.15;0.80;;;23.00;60.00;;;;;;5028227;28;20091;-62
2022/07/07 07:55:38;;;;;;;4.30;0.80;;;23.00;60.10;;;;;;5029314;28;20179;-64
2022/07/07 07:58:04;;;;;;;4.20;1.10;;;23.00;60.10;;;;;;5028311;28;20408;-63
2022/07/07 08:00:30;;;;;;;5.38;1.20;;;23.00;60.20;;;;;;5028313;28;20030;-63
2022/07/07 08:02:56;;;;;;;5.28;1.20;;;23.00;60.40;;;;;;5026892;28;20102;-63
2022/07/07 08:05:21;;;;;;;4.97;1.52;;;23.00;60.80;;;;;;4999267;28;20057;-63
2022/07/07 08:07:47;;;;;;;2.63;0.85;;;23.00;61.10;;;;;;5028130;28;20116;-63
2022/07/07 08:10:15;;;;;;;3.70;1.00;;;23.00;61.20;;;;;;5027598;28;20072;-63
2022/07/07 08:12:42;;;;;;;4.95;0.90;;;23.00;61.20;;;;;;4994009;28;20042;-64
2022/07/07 08:15:08;;;;;;;3.90;1.00;;;23.10;61.40;;;;;;5028065;28;20042;-64
2022/07/07 08:17:34;;;;;;;2.42;1.05;;;23.10;61.40;;;;;;5027635;28;20812;-62
2022/07/07 08:20:00;;;;;;;5.50;1.10;;;23.10;61.50;;;;;;5028772;28;20025;-63
2022/07/07 08:22:26;;;;;;;3.97;0.80;;;23.10;61.50;;;;;;5029183;28;20540;-62
2022/07/07 08:24:53;;;;;;;5.22;0.77;;;23.10;61.50;;;;;;5027153;28;20064;-62
2022/07/07 08:27:18;;;;;;;2.92;1.10;;;23.10;61.60;;;;;;5005741;28;20145;-63
2022/07/07 08:29:44;;;;;;;3.67;1.02;;;23.10;61.60;;;;;;5026121;28;20424;-62
2022/07/07 08:32:10;;;;;;;3.17;0.90;;;23.10;61.60;;;;;;5025600;28;20029;-63
2022/07/07 08:34:37;;;;;;;2.20;0.68;;;23.10;61.70;;;;;;5026625;28;20037;-62
2022/07/07 08:37:03;;;;;;;3.55;0.90;;;23.10;61.80;;;;;;5028542;28;20045;-63
2022/07/07 08:39:28;;;;;;;2.60;0.70;;;23.10;61.80;;;;;;5029574;28;20100;-63
2022/07/07 08:41:54;;;;;;;2.38;0.80;;;23.10;61.90;;;;;;5028903;28;20049;-61
2022/07/07 08:44:20;;;;;;;2.95;0.90;;;23.10;61.80;;;;;;5027669;28;20033;-63
2022/07/07 08:46:46;;;;;;;2.85;1.42;;;23.10;61.90;;;;;;5008108;28;20057;-64
2022/07/07 08:49:12;;;;;;;4.72;1.15;;;23.10;61.90;;;;;;5006466;28;20038;-65
2022/07/07 08:51:41;;;;;;;7.78;1.05;;;23.10;62.10;;;;;;5029759;28;20069;-64
2022/07/07 08:54:09;;;;;;;4.05;0.80;;;23.10;62.10;;;;;;5027802;28;20448;-64
2022/07/07 08:56:35;;;;;;;3.05;0.80;;;23.20;62.30;;;;;;5027238;28;20050;-62
2022/07/07 08:59:02;;;;;;;5.43;0.93;;;23.20;62.30;;;;;;5029805;28;20045;-61
2022/07/07 09:01:27;;;;;;;3.60;1.30;;;23.20;62.40;;;;;;5028681;28;20055;-63
2022/07/07 09:03:53;;;;;;;5.30;1.05;;;23.20;62.80;;;;;;5015511;28;20511;-62
2022/07/07 09:06:19;;;;;;;3.28;1.05;;;23.20;62.60;;;;;;5026971;28;20120;-64
2022/07/07 09:08:44;;;;;;;2.80;0.82;;;23.10;62.50;;;;;;5013547;28;20378;-62
2022/07/07 09:11:10;;;;;;;6.53;0.90;;;23.10;62.40;;;;;;5029994;28;20037;-65
2022/07/07 09:13:36;;;;;;;2.15;0.82;;;23.10;62.50;;;;;;5028899;28;20045;-63
2022/07/07 09:16:04;;;;;;;2.80;0.93;;;23.10;62.40;;;;;;5027142;28;20108;-63
2022/07/07 09:18:35;;;;;;;3.17;0.90;;;23.10;62.40;;;;;;5026724;28;20096;-63
2022/07/07 09:21:03;;;;;;;3.25;0.77;;;23.10;62.30;;;;;;5026888;28;20572;-63
2022/07/07 09:23:30;;;;;;;4.00;0.88;;;23.10;62.30;;;;;;5006240;28;20731;-63
2022/07/07 09:25:56;;;;;;;3.08;0.90;;;23.20;62.40;;;;;;5026164;28;20068;-65
2022/07/07 09:28:24;;;;;;;2.10;0.73;;;23.10;62.30;;;;;;5026959;28;20390;-63
2022/07/07 09:30:49;;;;;;;2.70;0.80;;;23.10;62.30;;;;;;5027096;28;20091;-65
2022/07/07 09:33:20;;;;;;;2.35;0.85;;;23.10;62.30;;;;;;5007615;28;20080;-62
2022/07/07 09:38:32;;;;;;;2.97;0.80;;;23.10;62.20;;;;;;5028895;28;20465;-63
2022/07/07 09:40:59;;;;;;;2.40;0.80;;;23.10;62.20;;;;;;5031559;28;20040;-65
2022/07/07 09:43:27;;;;;;;1.38;0.70;;;23.10;62.40;;;;;;5029406;28;20044;-62
2022/07/07 09:46:10;;;;;;;2.63;0.98;;;23.10;62.50;;;;;;5029329;28;20077;-63
2022/07/07 09:48:39;;;;;;;1.65;0.60;;;23.10;62.60;;;;;;5028425;28;20823;-63
2022/07/07 09:51:27;;;;;;;2.15;1.05;;;23.10;62.70;;;;;;5009118;28;20077;-62
2022/07/07 09:53:55;;;;;;;2.90;0.77;;;23.10;62.70;;;;;;5025060;28;20041;-62
2022/07/07 09:56:33;;;;;;;3.88;0.70;;;23.10;62.70;;;;;;5028071;28;20091;-63
2022/07/07 09:58:59;;;;;;;3.13;0.98;;;23.10;62.80;;;;;;5009813;28;20063;-61
2022/07/07 10:01:27;;;;;;;1.50;0.80;;;23.10;62.70;;;;;;5029749;28;20038;-61
2022/07/07 10:04:02;;;;;;;4.40;0.80;;;23.10;62.60;;;;;;4998376;28;20114;-61
2022/07/07 10:06:29;;;;;;;2.65;0.82;;;23.10;62.60;;;;;;5032040;28;20051;-65
2022/07/07 10:09:07;;;;;;;3.47;0.80;;;23.10;62.50;;;;;;5011937;28;20044;-64
2022/07/07 10:11:40;;;;;;;4.53;1.27;;;23.10;62.40;;;;;;5010838;28;20115;-62
2022/07/07 10:14:35;;;;;;;3.20;0.82;;;23.10;62.50;;;;;;5028710;28;20037;-60
2022/07/07 10:17:02;;;;;;;2.17;1.10;;;23.10;62.50;;;;;;5021672;28;20050;-62
2022/07/07 10:19:28;;;;;;;3.42;1.10;;;23.10;62.60;;;;;;5030031;28;20463;-62
2022/07/07 10:21:56;;;;;;;2.70;0.70;;;23.10;62.50;;;;;;5028811;28;20041;-64
2022/07/07 10:24:26;;;;;;;3.53;0.85;;;23.10;62.60;;;;;;5029579;28;20041;-64
2022/07/07 10:26:55;;;;;;;4.13;1.05;;;23.10;62.70;;;;;;5029221;28;20556;-62
2022/07/07 10:29:42;;;;;;;2.97;0.82;;;23.20;63.00;;;;;;5029890;28;20098;-62
2022/07/07 10:32:11;;;;;;;2.03;0.80;;;23.10;63.10;;;;;;5028999;28;20048;-63
2022/07/07 10:34:38;;;;;;;3.58;0.90;;;23.10;63.10;;;;;;5029186;28;20124;-62
2022/07/07 10:37:08;;;;;;;2.03;0.90;;;23.10;63.10;;;;;;5026678;28;20171;-61
2022/07/07 10:39:43;;;;;;;3.80;1.00;;;23.10;63.20;;;;;;5027299;28;20072;-61
2022/07/07 10:42:15;;;;;;;2.30;0.90;;;23.10;63.20;;;;;;5027600;28;20037;-61
2022/07/07 10:44:49;;;;;;;4.15;0.95;;;23.20;63.30;;;;;;5024719;28;20037;-60
2022/07/07 10:47:17;;;;;;;3.65;1.10;;;23.10;63.30;;;;;;4998244;28;20068;-61
2022/07/07 10:49:45;;;;;;;2.53;1.00;;;23.10;64.00;;;;;;5030298;28;20076;-62
2022/07/07 10:52:20;;;;;;;4.82;0.75;;;23.10;63.20;;;;;;5028608;28;20416;-61
2022/07/07 10:54:49;;;;;;;3.13;0.90;;;23.10;63.40;;;;;;5032047;28;20051;-61
2022/07/07 10:57:20;;;;;;;5.22;1.15;;;23.10;64.20;;;;;;5011619;28;20064;-61
2022/07/07 11:00:03;;;;;;;4.88;1.05;;;23.10;63.50;;;;;;5028943;28;20167;-61
2022/07/07 11:02:48;;;;;;;4.85;1.00;;;23.20;63.70;;;;;;5009091;28;20569;-61
2022/07/07 11:05:13;;;;;;;2.28;0.90;;;23.20;63.60;;;;;;5026202;28;20042;-62
2022/07/07 11:08:03;;;;;;;5.93;1.00;;;23.10;63.60;;;;;;5029412;28;20046;-61
2022/07/07 11:10:53;;;;;;;3.33;1.20;;;23.20;63.80;;;;;;4997463;28;20798;-61
2022/07/07 11:13:20;;;;;;;4.47;0.90;;;23.20;63.90;;;;;;5026999;28;20033;-61
2022/07/07 11:15:51;;;;;;;7.57;1.10;;;23.10;63.70;;;;;;5029018;28;20049;-62
2022/07/07 11:18:18;;;;;;;4.03;1.05;;;23.10;63.90;;;;;;5027519;28;20044;-61
2022/07/07 11:20:53;;;;;;;7.72;1.00;;;23.10;63.90;;;;;;5030114;28;20067;-62
2022/07/07 11:23:19;;;;;;;6.43;1.13;;;23.20;63.90;;;;;;5029645;28;20063;-62
2022/07/07 11:25:46;;;;;;;1.98;0.88;;;23.10;63.90;;;;;;5029115;28;20425;-61
2022/07/07 11:28:12;;;;;;;7.00;1.17;;;23.20;64.00;;;;;;5028247;28;20042;-66
2022/07/07 11:30:42;;;;;;;3.47;1.00;;;23.20;64.00;;;;;;5008937;28;20504;-62
2022/07/07 11:33:09;;;;;;;2.90;1.00;;;23.20;63.90;;;;;;5029451;28;20453;-64
2022/07/07 11:35:37;;;;;;;4.07;1.00;;;23.10;63.90;;;;;;5005786;28;20060;-64
2022/07/07 11:38:08;;;;;;;2.35;0.88;;;23.10;63.90;;;;;;5026023;28;20033;-63
2022/07/07 11:40:33;;;;;;;4.28;1.20;;;23.10;63.90;;;;;;5026564;28;20041;-62
2022/07/07 11:43:00;;;;;;;4.40;1.20;;;23.20;63.90;;;;;;5028402;28;20037;-62
2022/07/07 11:45:27;;;;;;;5.35;1.33;;;23.10;63.80;;;;;;5027020;28;20100;-62
2022/07/07 11:47:59;;;;;;;5.45;1.17;;;23.20;64.60;;;;;;5007068;28;20464;-62
2022/07/07 11:50:25;;;;;;;3.80;1.02;;;23.10;63.60;;;;;;5026264;28;20045;-62
2022/07/07 11:52:56;;;;;;;4.03;1.20;;;23.10;63.50;;;;;;5025939;28;20041;-61
2022/07/07 11:55:22;;;;;;;6.70;1.05;;;23.10;63.20;;;;;;5026956;28;20041;-62
2022/07/07 11:57:57;;;;;;;4.57;0.88;;;23.10;63.10;;;;;;5028677;28;20481;-61
2022/07/07 12:00:29;;;;;;;3.88;1.25;;;23.10;62.90;;;;;;4994234;28;20263;-62
2022/07/07 12:02:56;;;;;;;5.40;1.27;;;23.10;62.70;;;;;;5027398;28;20053;-62
2022/07/07 12:05:24;;;;;;;2.90;1.05;;;23.10;62.40;;;;;;5004827;28;20060;-62
2022/07/07 12:07:53;;;;;;;5.72;1.23;;;23.10;62.40;;;;;;5025148;28;20049;-62
2022/07/07 12:10:23;;;;;;;2.65;1.13;;;23.10;62.40;;;;;;5027723;28;20416;-61
2022/07/07 12:13:01;;;;;;;3.88;1.33;;;23.10;62.30;;;;;;5028624;28;20068;-60
2022/07/07 12:15:38;;;;;;;10.20;1.45;;;23.10;62.20;;;;;;5027256;28;20044;-61
2022/07/07 12:18:05;;;;;;;4.25;1.27;;;23.10;62.10;;;;;;5006285;28;20164;-61
2022/07/07 12:20:31;;;;;;;5.25;1.10;;;23.10;62.00;;;;;;5000720;28;20037;-61
2022/07/07 12:23:02;;;;;;;5.40;1.40;;;23.10;61.90;;;;;;5027644;28;20128;-62
2022/07/07 12:25:29;;;;;;;;;;;23.10;61.80;;;;;;5009716;28;20041;-61
2022/07/07 12:27:57;;;;;;;4.93;1.25;;;23.10;61.60;;;;;;5026529;28;19925;-61
2022/07/07 12:30:29;;;;;;;3.90;1.48;;;23.10;61.90;;;;;;5026069;28;20042;-61
2022/07/07 12:32:55;;;;;;;5.47;1.73;;;23.10;62.60;;;;;;5025710;28;20124;-61
2022/07/07 12:35:31;;;;;;;7.05;1.38;;;23.10;61.80;;;;;;5027452;28;20103;-62
2022/07/07 12:38:00;;;;;;;4.53;1.30;;;23.10;61.80;;;;;;5026532;28;20041;-62
2022/07/07 12:40:28;;;;;;;4.70;1.63;;;23.10;61.70;;;;;;5026811;28;20045;-62
2022/07/07 12:42:54;;;;;;;5.38;1.40;;;23.10;61.60;;;;;;5026165;28;20041;-61
2022/07/07 12:45:19;;;;;;;4.25;1.30;;;23.10;61.60;;;;;;5026251;28;20080;-61
2022/07/07 12:47:53;;;;;;;5.95;1.27;;;23.10;61.40;;;;;;5025079;28;20609;-61
2022/07/07 12:50:24;;;;;;;4.93;1.48;;;23.10;61.20;;;;;;5002739;28;20037;-63
2022/07/07 12:53:00;;;;;;;10.30;2.00;;;23.10;61.10;;;;;;5026746;28;20810;-62